KARB/ARB METAR and TAF weather

Enter ICAO airport designator
Station Type Date Time Source
KARB METAR 2020/07/06 21:53 UTC NOAA

KARB 062153Z AUTO 09004KT 10SM CLR 30/19 A2998 RMK AO2 SLP146 T03000189


Station Type Date Time Source
KARB Decoded METAR 2020/07/06 21:53 UTC NOAA

ANN ARBOR MUNICIPAL AIRPORT, MI, United States (KARB) 42-13N 083-45W 251M
Jul 06, 2020 - 05:53 PM EDT / 2020.07.06 2153 UTC
Wind: from the E (090 degrees) at 5 MPH (4 KT):0
Visibility: 10 mile(s):0
Sky conditions: clear
Temperature: 86.0 F (30.0 C)
Dew Point: 66.0 F (18.9 C)
Relative Humidity: 51%
Pressure (altimeter): 29.98 in. Hg (1015 hPa)
ob: KARB 062153Z AUTO 09004KT 10SM CLR 30/19 A2998 RMK AO2 SLP146 T03000189
cycle: 22

Station Type Date Time Source
KARB TAF UTC NOAA

Error!

Example: see airport list